East Smethport, Pennsylvania
Current Conditions -  °F | °C
As of 6:53 PM on Tuesday 25 Nov 2014 (Local Time) from KBFD Reporting Station
Overcast Overcast  
Wind Chill: -3°   Ceiling: 2700
Heat Index:   Visibility: 10mi
Dew Point: -5°   Wind: 10mph
Humidity: 61%   Direction: 270°W
Pressure: 30.07"   Gusts: 21mph
Location:  41.81°N, 78.42°W
Report Text: KBFD 252353Z AUTO 27009G18KT 10SM OVC027 02/M05 A3007 RMK AO2 SLP197 6//// T00171050 10050 20017 53029
Loading
Personal Weather Stations






























Interactive Weather Map New forecast layout! Learn more

10-Day Weather Forecast

Advertisements
Track Severe Weather on mobile